sensor_id;sensor_type;location;lat;lon;timestamp;P1;durP1;ratioP1;P2;durP2;ratioP2
11338;SDS011;5724;42.684;23.252;2023-07-02T00:01:47;6.22;;;5.72;;
11338;SDS011;5724;42.684;23.252;2023-07-02T00:04:13;5.85;;;5.45;;
11338;SDS011;5724;42.684;23.252;2023-07-02T00:06:44;6.32;;;5.82;;
11338;SDS011;5724;42.684;23.252;2023-07-02T00:09:10;6.35;;;5.95;;
11338;SDS011;5724;42.684;23.252;2023-07-02T00:11:39;6.57;;;5.97;;
11338;SDS011;5724;42.684;23.252;2023-07-02T00:14:06;6.30;;;5.85;;
11338;SDS011;5724;42.684;23.252;2023-07-02T00:16:32;6.25;;;5.65;;
11338;SDS011;5724;42.684;23.252;2023-07-02T00:18:58;6.38;;;5.78;;
11338;SDS011;5724;42.684;23.252;2023-07-02T00:21:25;7.03;;;6.50;;
11338;SDS011;5724;42.684;23.252;2023-07-02T00:23:53;6.82;;;5.70;;
11338;SDS011;5724;42.684;23.252;2023-07-02T00:26:22;5.40;;;5.05;;
11338;SDS011;5724;42.684;23.252;2023-07-02T00:28:48;6.43;;;5.93;;
11338;SDS011;5724;42.684;23.252;2023-07-02T00:31:14;6.78;;;6.20;;
11338;SDS011;5724;42.684;23.252;2023-07-02T00:33:39;6.40;;;5.85;;
11338;SDS011;5724;42.684;23.252;2023-07-02T00:36:05;9.07;;;6.35;;
11338;SDS011;5724;42.684;23.252;2023-07-02T00:38:30;7.07;;;6.28;;
11338;SDS011;5724;42.684;23.252;2023-07-02T00:40:56;6.90;;;6.32;;
11338;SDS011;5724;42.684;23.252;2023-07-02T00:43:21;6.85;;;6.43;;
11338;SDS011;5724;42.684;23.252;2023-07-02T00:45:47;6.43;;;5.93;;
11338;SDS011;5724;42.684;23.252;2023-07-02T00:48:12;6.07;;;5.63;;
11338;SDS011;5724;42.684;23.252;2023-07-02T00:50:38;6.32;;;5.82;;
11338;SDS011;5724;42.684;23.252;2023-07-02T00:53:04;6.63;;;5.90;;
11338;SDS011;5724;42.684;23.252;2023-07-02T00:55:30;6.40;;;5.90;;
11338;SDS011;5724;42.684;23.252;2023-07-02T00:57:55;6.57;;;6.07;;
11338;SDS011;5724;42.684;23.252;2023-07-02T01:00:22;5.97;;;5.47;;
11338;SDS011;5724;42.684;23.252;2023-07-02T01:02:54;6.55;;;5.95;;
11338;SDS011;5724;42.684;23.252;2023-07-02T01:05:24;6.28;;;5.57;;
11338;SDS011;5724;42.684;23.252;2023-07-02T01:07:51;6.82;;;6.28;;
11338;SDS011;5724;42.684;23.252;2023-07-02T01:10:17;7.25;;;6.55;;
11338;SDS011;5724;42.684;23.252;2023-07-02T01:12:43;6.72;;;6.20;;
11338;SDS011;5724;42.684;23.252;2023-07-02T01:15:11;6.20;;;5.70;;
11338;SDS011;5724;42.684;23.252;2023-07-02T01:17:36;7.38;;;6.68;;
11338;SDS011;5724;42.684;23.252;2023-07-02T01:20:07;6.63;;;6.13;;
11338;SDS011;5724;42.684;23.252;2023-07-02T01:22:34;7.32;;;6.65;;
11338;SDS011;5724;42.684;23.252;2023-07-02T01:25:01;7.60;;;7.00;;
11338;SDS011;5724;42.684;23.252;2023-07-02T01:27:29;7.35;;;6.68;;
11338;SDS011;5724;42.684;23.252;2023-07-02T01:29:55;7.03;;;6.53;;
11338;SDS011;5724;42.684;23.252;2023-07-02T01:32:21;7.32;;;6.63;;
11338;SDS011;5724;42.684;23.252;2023-07-02T01:34:47;7.20;;;6.68;;
11338;SDS011;5724;42.684;23.252;2023-07-02T01:37:17;7.85;;;7.28;;
11338;SDS011;5724;42.684;23.252;2023-07-02T01:39:43;8.00;;;7.40;;
11338;SDS011;5724;42.684;23.252;2023-07-02T01:42:10;7.38;;;6.88;;
11338;SDS011;5724;42.684;23.252;2023-07-02T01:44:41;7.43;;;6.82;;
11338;SDS011;5724;42.684;23.252;2023-07-02T01:47:07;7.38;;;6.80;;
11338;SDS011;5724;42.684;23.252;2023-07-02T01:49:33;7.50;;;7.00;;
11338;SDS011;5724;42.684;23.252;2023-07-02T01:51:59;7.38;;;6.72;;
11338;SDS011;5724;42.684;23.252;2023-07-02T01:54:25;7.43;;;6.93;;
11338;SDS011;5724;42.684;23.252;2023-07-02T01:56:54;7.25;;;6.57;;
11338;SDS011;5724;42.684;23.252;2023-07-02T01:59:20;7.45;;;6.80;;
11338;SDS011;5724;42.684;23.252;2023-07-02T02:01:46;6.50;;;6.10;;
11338;SDS011;5724;42.684;23.252;2023-07-02T02:04:12;7.82;;;6.55;;
11338;SDS011;5724;42.684;23.252;2023-07-02T02:06:38;6.93;;;6.40;;
11338;SDS011;5724;42.684;23.252;2023-07-02T02:09:04;7.30;;;6.75;;
11338;SDS011;5724;42.684;23.252;2023-07-02T02:11:31;8.65;;;7.80;;
11338;SDS011;5724;42.684;23.252;2023-07-02T02:13:58;8.02;;;7.32;;
11338;SDS011;5724;42.684;23.252;2023-07-02T02:16:24;9.02;;;7.32;;
11338;SDS011;5724;42.684;23.252;2023-07-02T02:18:49;7.95;;;7.15;;
11338;SDS011;5724;42.684;23.252;2023-07-02T02:21:18;8.52;;;7.80;;
11338;SDS011;5724;42.684;23.252;2023-07-02T02:23:44;9.23;;;7.65;;
11338;SDS011;5724;42.684;23.252;2023-07-02T02:26:10;8.55;;;7.72;;
11338;SDS011;5724;42.684;23.252;2023-07-02T02:28:36;8.00;;;7.30;;
11338;SDS011;5724;42.684;23.252;2023-07-02T02:31:01;8.48;;;7.88;;
11338;SDS011;5724;42.684;23.252;2023-07-02T02:33:27;8.45;;;7.75;;
11338;SDS011;5724;42.684;23.252;2023-07-02T02:35:53;8.70;;;7.97;;
11338;SDS011;5724;42.684;23.252;2023-07-02T02:38:18;7.88;;;7.28;;
11338;SDS011;5724;42.684;23.252;2023-07-02T02:40:43;8.00;;;7.35;;
11338;SDS011;5724;42.684;23.252;2023-07-02T02:43:09;8.55;;;7.82;;
11338;SDS011;5724;42.684;23.252;2023-07-02T02:45:34;8.35;;;7.63;;
11338;SDS011;5724;42.684;23.252;2023-07-02T02:48:00;9.45;;;8.65;;
11338;SDS011;5724;42.684;23.252;2023-07-02T02:50:25;11.27;;;9.82;;
11338;SDS011;5724;42.684;23.252;2023-07-02T02:52:52;11.00;;;10.02;;
11338;SDS011;5724;42.684;23.252;2023-07-02T02:55:18;10.57;;;9.65;;
11338;SDS011;5724;42.684;23.252;2023-07-02T02:57:43;12.50;;;10.43;;
11338;SDS011;5724;42.684;23.252;2023-07-02T03:00:09;10.57;;;9.68;;
11338;SDS011;5724;42.684;23.252;2023-07-02T03:02:36;12.32;;;9.48;;
11338;SDS011;5724;42.684;23.252;2023-07-02T03:05:02;9.88;;;8.77;;
11338;SDS011;5724;42.684;23.252;2023-07-02T03:07:28;9.15;;;8.35;;
11338;SDS011;5724;42.684;23.252;2023-07-02T03:09:54;8.93;;;8.23;;
11338;SDS011;5724;42.684;23.252;2023-07-02T03:12:19;9.55;;;8.23;;
11338;SDS011;5724;42.684;23.252;2023-07-02T03:14:45;8.38;;;7.53;;
11338;SDS011;5724;42.684;23.252;2023-07-02T03:17:12;9.40;;;8.25;;
11338;SDS011;5724;42.684;23.252;2023-07-02T03:19:38;8.80;;;7.65;;
11338;SDS011;5724;42.684;23.252;2023-07-02T03:22:03;8.05;;;7.43;;
11338;SDS011;5724;42.684;23.252;2023-07-02T03:24:29;10.00;;;7.95;;
11338;SDS011;5724;42.684;23.252;2023-07-02T03:26:54;8.18;;;7.35;;
11338;SDS011;5724;42.684;23.252;2023-07-02T03:29:20;10.32;;;8.18;;
11338;SDS011;5724;42.684;23.252;2023-07-02T03:31:45;8.52;;;7.30;;
11338;SDS011;5724;42.684;23.252;2023-07-02T03:34:11;8.57;;;7.78;;
11338;SDS011;5724;42.684;23.252;2023-07-02T03:36:37;8.38;;;7.57;;
11338;SDS011;5724;42.684;23.252;2023-07-02T03:39:04;7.75;;;7.05;;
11338;SDS011;5724;42.684;23.252;2023-07-02T03:41:30;8.32;;;7.57;;
11338;SDS011;5724;42.684;23.252;2023-07-02T03:43:56;8.00;;;7.35;;
11338;SDS011;5724;42.684;23.252;2023-07-02T03:46:21;7.72;;;6.93;;
11338;SDS011;5724;42.684;23.252;2023-07-02T03:48:46;8.70;;;7.80;;
11338;SDS011;5724;42.684;23.252;2023-07-02T03:51:12;11.95;;;10.02;;
11338;SDS011;5724;42.684;23.252;2023-07-02T03:53:39;16.70;;;14.90;;
11338;SDS011;5724;42.684;23.252;2023-07-02T03:56:05;10.52;;;9.57;;
11338;SDS011;5724;42.684;23.252;2023-07-02T03:58:31;10.52;;;9.48;;
11338;SDS011;5724;42.684;23.252;2023-07-02T04:00:56;12.07;;;8.48;;
11338;SDS011;5724;42.684;23.252;2023-07-02T04:03:22;10.00;;;9.02;;
11338;SDS011;5724;42.684;23.252;2023-07-02T04:05:47;11.35;;;8.82;;
11338;SDS011;5724;42.684;23.252;2023-07-02T04:08:13;11.07;;;8.40;;
11338;SDS011;5724;42.684;23.252;2023-07-02T04:10:38;7.88;;;7.18;;
11338;SDS011;5724;42.684;23.252;2023-07-02T04:13:04;7.97;;;7.13;;
11338;SDS011;5724;42.684;23.252;2023-07-02T04:15:29;7.97;;;7.15;;
11338;SDS011;5724;42.684;23.252;2023-07-02T04:17:55;10.35;;;8.10;;
11338;SDS011;5724;42.684;23.252;2023-07-02T04:20:21;8.00;;;7.03;;
11338;SDS011;5724;42.684;23.252;2023-07-02T04:22:46;7.78;;;7.07;;
11338;SDS011;5724;42.684;23.252;2023-07-02T04:25:12;8.63;;;7.53;;
11338;SDS011;5724;42.684;23.252;2023-07-02T04:27:41;8.20;;;7.47;;
11338;SDS011;5724;42.684;23.252;2023-07-02T04:30:10;7.82;;;7.13;;
11338;SDS011;5724;42.684;23.252;2023-07-02T04:32:37;8.05;;;7.30;;
11338;SDS011;5724;42.684;23.252;2023-07-02T04:35:06;8.75;;;7.95;;
11338;SDS011;5724;42.684;23.252;2023-07-02T04:37:36;10.52;;;9.52;;
11338;SDS011;5724;42.684;23.252;2023-07-02T04:40:01;10.43;;;7.85;;
11338;SDS011;5724;42.684;23.252;2023-07-02T04:42:41;9.20;;;8.18;;
11338;SDS011;5724;42.684;23.252;2023-07-02T04:45:11;8.93;;;7.90;;
11338;SDS011;5724;42.684;23.252;2023-07-02T04:47:38;10.13;;;9.10;;
11338;SDS011;5724;42.684;23.252;2023-07-02T04:50:04;10.52;;;7.95;;
11338;SDS011;5724;42.684;23.252;2023-07-02T04:52:30;8.15;;;7.53;;
11338;SDS011;5724;42.684;23.252;2023-07-02T04:54:56;9.00;;;8.20;;
11338;SDS011;5724;42.684;23.252;2023-07-02T04:57:22;9.63;;;8.70;;
11338;SDS011;5724;42.684;23.252;2023-07-02T04:59:47;10.50;;;8.40;;
11338;SDS011;5724;42.684;23.252;2023-07-02T05:02:13;9.02;;;8.05;;
11338;SDS011;5724;42.684;23.252;2023-07-02T05:04:38;9.20;;;8.30;;
11338;SDS011;5724;42.684;23.252;2023-07-02T05:07:04;9.13;;;8.23;;
11338;SDS011;5724;42.684;23.252;2023-07-02T05:09:30;9.43;;;8.00;;
11338;SDS011;5724;42.684;23.252;2023-07-02T05:11:56;8.82;;;8.00;;
11338;SDS011;5724;42.684;23.252;2023-07-02T05:14:22;11.95;;;7.63;;
11338;SDS011;5724;42.684;23.252;2023-07-02T05:16:48;9.73;;;8.73;;
11338;SDS011;5724;42.684;23.252;2023-07-02T05:19:14;8.57;;;7.72;;
11338;SDS011;5724;42.684;23.252;2023-07-02T05:21:39;10.38;;;8.63;;
11338;SDS011;5724;42.684;23.252;2023-07-02T05:24:05;10.57;;;9.43;;
11338;SDS011;5724;42.684;23.252;2023-07-02T05:26:30;11.45;;;10.40;;
11338;SDS011;5724;42.684;23.252;2023-07-02T05:28:56;13.20;;;11.80;;
11338;SDS011;5724;42.684;23.252;2023-07-02T05:31:21;11.52;;;10.52;;
11338;SDS011;5724;42.684;23.252;2023-07-02T05:33:47;12.05;;;10.85;;
11338;SDS011;5724;42.684;23.252;2023-07-02T05:36:12;11.27;;;8.82;;
11338;SDS011;5724;42.684;23.252;2023-07-02T05:38:37;9.38;;;8.48;;
11338;SDS011;5724;42.684;23.252;2023-07-02T05:41:04;10.48;;;8.45;;
11338;SDS011;5724;42.684;23.252;2023-07-02T05:43:30;9.75;;;8.25;;
11338;SDS011;5724;42.684;23.252;2023-07-02T05:45:57;9.60;;;8.60;;
11338;SDS011;5724;42.684;23.252;2023-07-02T05:48:25;10.30;;;8.05;;
11338;SDS011;5724;42.684;23.252;2023-07-02T05:50:51;9.02;;;8.13;;
11338;SDS011;5724;42.684;23.252;2023-07-02T05:53:16;10.45;;;8.80;;
11338;SDS011;5724;42.684;23.252;2023-07-02T05:55:42;9.70;;;8.70;;
11338;SDS011;5724;42.684;23.252;2023-07-02T05:58:08;9.65;;;8.70;;
11338;SDS011;5724;42.684;23.252;2023-07-02T06:00:34;11.25;;;8.68;;
11338;SDS011;5724;42.684;23.252;2023-07-02T06:03:00;9.70;;;8.65;;
11338;SDS011;5724;42.684;23.252;2023-07-02T06:05:25;9.98;;;8.98;;
11338;SDS011;5724;42.684;23.252;2023-07-02T06:07:51;9.50;;;8.52;;
11338;SDS011;5724;42.684;23.252;2023-07-02T06:10:16;9.98;;;9.07;;
11338;SDS011;5724;42.684;23.252;2023-07-02T06:12:43;10.98;;;8.80;;
11338;SDS011;5724;42.684;23.252;2023-07-02T06:15:09;10.40;;;8.82;;
11338;SDS011;5724;42.684;23.252;2023-07-02T06:17:36;10.30;;;8.57;;
11338;SDS011;5724;42.684;23.252;2023-07-02T06:20:04;13.05;;;10.73;;
11338;SDS011;5724;42.684;23.252;2023-07-02T06:22:31;12.20;;;10.18;;
11338;SDS011;5724;42.684;23.252;2023-07-02T06:24:56;10.88;;;9.73;;
11338;SDS011;5724;42.684;23.252;2023-07-02T06:27:21;10.43;;;9.45;;
11338;SDS011;5724;42.684;23.252;2023-07-02T06:29:47;9.65;;;8.75;;
11338;SDS011;5724;42.684;23.252;2023-07-02T06:32:13;9.40;;;8.50;;
11338;SDS011;5724;42.684;23.252;2023-07-02T06:34:38;11.27;;;9.23;;
11338;SDS011;5724;42.684;23.252;2023-07-02T06:37:04;9.10;;;8.32;;
11338;SDS011;5724;42.684;23.252;2023-07-02T06:39:30;9.82;;;8.77;;
11338;SDS011;5724;42.684;23.252;2023-07-02T06:41:55;13.40;;;9.65;;
11338;SDS011;5724;42.684;23.252;2023-07-02T06:44:21;12.95;;;8.63;;
11338;SDS011;5724;42.684;23.252;2023-07-02T06:46:46;10.13;;;9.02;;
11338;SDS011;5724;42.684;23.252;2023-07-02T06:49:11;9.15;;;8.35;;
11338;SDS011;5724;42.684;23.252;2023-07-02T06:51:37;8.93;;;7.45;;
11338;SDS011;5724;42.684;23.252;2023-07-02T06:54:03;8.30;;;7.63;;
11338;SDS011;5724;42.684;23.252;2023-07-02T06:56:28;11.02;;;7.78;;
11338;SDS011;5724;42.684;23.252;2023-07-02T06:58:54;8.18;;;7.47;;
11338;SDS011;5724;42.684;23.252;2023-07-02T07:01:19;8.73;;;8.07;;
11338;SDS011;5724;42.684;23.252;2023-07-02T07:03:45;10.38;;;8.05;;
11338;SDS011;5724;42.684;23.252;2023-07-02T07:06:11;8.45;;;7.65;;
11338;SDS011;5724;42.684;23.252;2023-07-02T07:08:37;8.98;;;8.13;;
11338;SDS011;5724;42.684;23.252;2023-07-02T07:11:03;9.48;;;8.48;;
11338;SDS011;5724;42.684;23.252;2023-07-02T07:13:29;8.88;;;8.02;;
11338;SDS011;5724;42.684;23.252;2023-07-02T07:15:54;7.93;;;7.43;;
11338;SDS011;5724;42.684;23.252;2023-07-02T07:18:20;12.70;;;9.65;;
11338;SDS011;5724;42.684;23.252;2023-07-02T07:20:45;11.63;;;9.10;;
11338;SDS011;5724;42.684;23.252;2023-07-02T07:23:11;9.13;;;8.32;;
11338;SDS011;5724;42.684;23.252;2023-07-02T07:25:36;9.38;;;8.30;;
11338;SDS011;5724;42.684;23.252;2023-07-02T07:28:02;10.80;;;9.43;;
11338;SDS011;5724;42.684;23.252;2023-07-02T07:30:27;12.65;;;10.13;;
11338;SDS011;5724;42.684;23.252;2023-07-02T07:32:53;11.75;;;9.88;;
11338;SDS011;5724;42.684;23.252;2023-07-02T07:35:22;9.98;;;9.07;;
11338;SDS011;5724;42.684;23.252;2023-07-02T07:37:47;11.10;;;8.90;;
11338;SDS011;5724;42.684;23.252;2023-07-02T07:40:13;11.32;;;10.23;;
11338;SDS011;5724;42.684;23.252;2023-07-02T07:42:39;10.35;;;9.35;;
11338;SDS011;5724;42.684;23.252;2023-07-02T07:45:06;10.13;;;9.05;;
11338;SDS011;5724;42.684;23.252;2023-07-02T07:47:31;9.43;;;8.50;;
11338;SDS011;5724;42.684;23.252;2023-07-02T07:49:57;8.93;;;8.02;;
11338;SDS011;5724;42.684;23.252;2023-07-02T07:52:23;8.60;;;7.90;;
11338;SDS011;5724;42.684;23.252;2023-07-02T07:54:48;8.02;;;7.32;;
11338;SDS011;5724;42.684;23.252;2023-07-02T07:57:14;10.05;;;8.05;;
11338;SDS011;5724;42.684;23.252;2023-07-02T07:59:39;10.48;;;9.43;;
11338;SDS011;5724;42.684;23.252;2023-07-02T08:02:05;8.63;;;7.93;;
11338;SDS011;5724;42.684;23.252;2023-07-02T08:04:31;9.73;;;7.28;;
11338;SDS011;5724;42.684;23.252;2023-07-02T08:06:56;7.78;;;7.28;;
11338;SDS011;5724;42.684;23.252;2023-07-02T08:09:22;10.43;;;9.32;;
11338;SDS011;5724;42.684;23.252;2023-07-02T08:11:49;9.32;;;8.20;;
11338;SDS011;5724;42.684;23.252;2023-07-02T08:14:14;7.63;;;6.93;;
11338;SDS011;5724;42.684;23.252;2023-07-02T08:16:41;8.63;;;7.82;;
11338;SDS011;5724;42.684;23.252;2023-07-02T08:19:07;6.53;;;5.95;;
11338;SDS011;5724;42.684;23.252;2023-07-02T08:21:32;8.93;;;8.13;;
11338;SDS011;5724;42.684;23.252;2023-07-02T08:23:58;7.43;;;6.88;;
11338;SDS011;5724;42.684;23.252;2023-07-02T08:26:23;11.30;;;9.45;;
11338;SDS011;5724;42.684;23.252;2023-07-02T08:28:49;7.35;;;6.80;;
11338;SDS011;5724;42.684;23.252;2023-07-02T08:31:14;8.95;;;6.25;;
11338;SDS011;5724;42.684;23.252;2023-07-02T08:33:40;7.47;;;6.90;;
11338;SDS011;5724;42.684;23.252;2023-07-02T08:36:06;7.25;;;6.50;;
11338;SDS011;5724;42.684;23.252;2023-07-02T08:38:31;7.35;;;6.75;;
11338;SDS011;5724;42.684;23.252;2023-07-02T08:40:57;7.70;;;6.50;;
11338;SDS011;5724;42.684;23.252;2023-07-02T08:43:23;6.10;;;5.53;;
11338;SDS011;5724;42.684;23.252;2023-07-02T08:45:51;6.45;;;5.60;;
11338;SDS011;5724;42.684;23.252;2023-07-02T08:48:18;7.57;;;6.90;;
11338;SDS011;5724;42.684;23.252;2023-07-02T08:50:48;7.72;;;6.80;;
11338;SDS011;5724;42.684;23.252;2023-07-02T08:53:14;6.57;;;6.05;;
11338;SDS011;5724;42.684;23.252;2023-07-02T08:55:40;6.55;;;5.93;;
11338;SDS011;5724;42.684;23.252;2023-07-02T08:58:05;7.20;;;6.60;;
11338;SDS011;5724;42.684;23.252;2023-07-02T09:00:31;6.85;;;6.35;;
11338;SDS011;5724;42.684;23.252;2023-07-02T09:03:13;9.32;;;6.53;;
11338;SDS011;5724;42.684;23.252;2023-07-02T09:05:49;6.13;;;5.72;;
11338;SDS011;5724;42.684;23.252;2023-07-02T09:08:26;7.15;;;6.55;;
11338;SDS011;5724;42.684;23.252;2023-07-02T09:10:53;5.13;;;4.80;;
11338;SDS011;5724;42.684;23.252;2023-07-02T09:13:19;5.95;;;5.47;;
11338;SDS011;5724;42.684;23.252;2023-07-02T09:15:45;5.90;;;5.45;;
11338;SDS011;5724;42.684;23.252;2023-07-02T09:18:14;6.20;;;5.70;;
11338;SDS011;5724;42.684;23.252;2023-07-02T09:20:44;6.13;;;5.72;;
11338;SDS011;5724;42.684;23.252;2023-07-02T09:23:09;6.60;;;5.97;;
11338;SDS011;5724;42.684;23.252;2023-07-02T09:25:40;7.68;;;6.90;;
11338;SDS011;5724;42.684;23.252;2023-07-02T09:28:17;7.00;;;6.50;;
11338;SDS011;5724;42.684;23.252;2023-07-02T09:30:54;7.25;;;6.68;;
11338;SDS011;5724;42.684;23.252;2023-07-02T09:33:24;6.82;;;6.20;;
11338;SDS011;5724;42.684;23.252;2023-07-02T09:35:51;7.15;;;6.63;;
11338;SDS011;5724;42.684;23.252;2023-07-02T09:38:17;6.60;;;6.10;;
11338;SDS011;5724;42.684;23.252;2023-07-02T09:40:48;5.90;;;4.88;;
11338;SDS011;5724;42.684;23.252;2023-07-02T09:43:15;4.47;;;4.28;;
11338;SDS011;5724;42.684;23.252;2023-07-02T09:45:45;6.15;;;4.68;;
11338;SDS011;5724;42.684;23.252;2023-07-02T09:48:15;4.95;;;4.55;;
11338;SDS011;5724;42.684;23.252;2023-07-02T09:50:43;3.03;;;2.92;;
11338;SDS011;5724;42.684;23.252;2023-07-02T09:53:09;3.38;;;3.17;;
11338;SDS011;5724;42.684;23.252;2023-07-02T09:55:36;3.25;;;3.05;;
11338;SDS011;5724;42.684;23.252;2023-07-02T09:58:05;2.70;;;2.60;;
11338;SDS011;5724;42.684;23.252;2023-07-02T10:00:31;3.35;;;3.15;;
11338;SDS011;5724;42.684;23.252;2023-07-02T10:02:56;3.60;;;3.40;;
11338;SDS011;5724;42.684;23.252;2023-07-02T10:05:29;5.25;;;4.85;;
11338;SDS011;5724;42.684;23.252;2023-07-02T10:07:59;4.10;;;3.90;;
11338;SDS011;5724;42.684;23.252;2023-07-02T10:10:38;3.35;;;3.15;;
11338;SDS011;5724;42.684;23.252;2023-07-02T10:13:03;3.00;;;2.90;;
11338;SDS011;5724;42.684;23.252;2023-07-02T10:15:29;2.95;;;2.75;;
11338;SDS011;5724;42.684;23.252;2023-07-02T10:18:02;2.78;;;2.67;;
11338;SDS011;5724;42.684;23.252;2023-07-02T10:20:38;2.78;;;2.67;;
11338;SDS011;5724;42.684;23.252;2023-07-02T10:23:05;3.40;;;3.20;;
11338;SDS011;5724;42.684;23.252;2023-07-02T10:25:35;3.00;;;2.90;;
11338;SDS011;5724;42.684;23.252;2023-07-02T10:28:18;3.55;;;3.35;;
11338;SDS011;5724;42.684;23.252;2023-07-02T10:30:47;3.65;;;3.45;;
11338;SDS011;5724;42.684;23.252;2023-07-02T10:33:13;4.00;;;3.80;;
11338;SDS011;5724;42.684;23.252;2023-07-02T10:35:40;4.35;;;4.15;;
11338;SDS011;5724;42.684;23.252;2023-07-02T10:38:07;4.15;;;3.95;;
11338;SDS011;5724;42.684;23.252;2023-07-02T10:40:41;4.03;;;3.83;;
11338;SDS011;5724;42.684;23.252;2023-07-02T10:43:07;3.90;;;3.70;;
11338;SDS011;5724;42.684;23.252;2023-07-02T10:45:33;4.05;;;3.85;;
11338;SDS011;5724;42.684;23.252;2023-07-02T10:48:04;3.63;;;3.42;;
11338;SDS011;5724;42.684;23.252;2023-07-02T10:50:34;4.63;;;4.32;;
11338;SDS011;5724;42.684;23.252;2023-07-02T10:53:00;4.60;;;4.40;;
11338;SDS011;5724;42.684;23.252;2023-07-02T10:55:26;4.25;;;3.95;;
11338;SDS011;5724;42.684;23.252;2023-07-02T10:58:05;4.47;;;4.15;;
11338;SDS011;5724;42.684;23.252;2023-07-02T11:00:32;4.47;;;4.18;;
11338;SDS011;5724;42.684;23.252;2023-07-02T11:02:58;4.55;;;4.25;;
11338;SDS011;5724;42.684;23.252;2023-07-02T11:05:25;4.65;;;4.35;;
11338;SDS011;5724;42.684;23.252;2023-07-02T11:07:50;4.25;;;3.95;;
11338;SDS011;5724;42.684;23.252;2023-07-02T11:10:23;3.92;;;3.72;;
11338;SDS011;5724;42.684;23.252;2023-07-02T11:12:49;4.65;;;4.45;;
11338;SDS011;5724;42.684;23.252;2023-07-02T11:15:16;4.80;;;4.50;;
11338;SDS011;5724;42.684;23.252;2023-07-02T11:17:45;4.72;;;4.22;;
11338;SDS011;5724;42.684;23.252;2023-07-02T11:20:11;7.28;;;4.68;;
11338;SDS011;5724;42.684;23.252;2023-07-02T11:22:38;4.82;;;4.53;;
11338;SDS011;5724;42.684;23.252;2023-07-02T11:25:15;4.47;;;4.18;;
11338;SDS011;5724;42.684;23.252;2023-07-02T11:27:41;4.93;;;4.63;;
11338;SDS011;5724;42.684;23.252;2023-07-02T11:30:07;5.20;;;4.80;;
11338;SDS011;5724;42.684;23.252;2023-07-02T11:32:46;5.80;;;4.47;;
11338;SDS011;5724;42.684;23.252;2023-07-02T11:35:15;4.28;;;4.07;;
11338;SDS011;5724;42.684;23.252;2023-07-02T11:37:41;4.60;;;4.30;;
11338;SDS011;5724;42.684;23.252;2023-07-02T11:40:07;4.63;;;4.20;;
11338;SDS011;5724;42.684;23.252;2023-07-02T11:42:33;4.30;;;3.92;;
11338;SDS011;5724;42.684;23.252;2023-07-02T11:44:59;3.28;;;3.17;;
11338;SDS011;5724;42.684;23.252;2023-07-02T11:47:24;3.65;;;3.45;;
11338;SDS011;5724;42.684;23.252;2023-07-02T11:49:52;2.97;;;2.78;;
11338;SDS011;5724;42.684;23.252;2023-07-02T11:52:18;3.10;;;2.90;;
11338;SDS011;5724;42.684;23.252;2023-07-02T11:54:43;3.00;;;2.85;;
11338;SDS011;5724;42.684;23.252;2023-07-02T11:57:08;2.92;;;2.83;;
11338;SDS011;5724;42.684;23.252;2023-07-02T11:59:34;7.90;;;3.38;;
11338;SDS011;5724;42.684;23.252;2023-07-02T12:02:01;5.10;;;3.42;;
11338;SDS011;5724;42.684;23.252;2023-07-02T12:04:27;3.60;;;3.40;;
11338;SDS011;5724;42.684;23.252;2023-07-02T12:06:52;3.95;;;3.60;;
11338;SDS011;5724;42.684;23.252;2023-07-02T12:09:18;3.80;;;3.60;;
11338;SDS011;5724;42.684;23.252;2023-07-02T12:11:44;4.43;;;4.22;;
11338;SDS011;5724;42.684;23.252;2023-07-02T12:14:11;3.95;;;3.75;;
11338;SDS011;5724;42.684;23.252;2023-07-02T12:16:36;4.40;;;4.10;;
11338;SDS011;5724;42.684;23.252;2023-07-02T12:19:02;4.90;;;4.50;;
11338;SDS011;5724;42.684;23.252;2023-07-02T12:21:27;5.78;;;5.38;;
11338;SDS011;5724;42.684;23.252;2023-07-02T12:23:53;4.35;;;4.15;;
11338;SDS011;5724;42.684;23.252;2023-07-02T12:26:18;4.13;;;3.92;;
11338;SDS011;5724;42.684;23.252;2023-07-02T12:28:44;4.47;;;4.07;;
11338;SDS011;5724;42.684;23.252;2023-07-02T12:31:10;5.22;;;4.85;;
11338;SDS011;5724;42.684;23.252;2023-07-02T12:33:37;4.90;;;4.60;;
11338;SDS011;5724;42.684;23.252;2023-07-02T12:36:03;5.10;;;4.80;;
11338;SDS011;5724;42.684;23.252;2023-07-02T12:38:29;5.13;;;4.85;;
11338;SDS011;5724;42.684;23.252;2023-07-02T12:40:54;5.15;;;4.85;;
11338;SDS011;5724;42.684;23.252;2023-07-02T12:43:19;4.68;;;4.47;;
11338;SDS011;5724;42.684;23.252;2023-07-02T12:45:45;5.32;;;4.88;;
11338;SDS011;5724;42.684;23.252;2023-07-02T12:48:10;5.50;;;5.07;;
11338;SDS011;5724;42.684;23.252;2023-07-02T12:50:37;5.35;;;4.97;;
11338;SDS011;5724;42.684;23.252;2023-07-02T12:53:03;6.10;;;5.60;;
11338;SDS011;5724;42.684;23.252;2023-07-02T12:55:29;5.30;;;4.95;;
11338;SDS011;5724;42.684;23.252;2023-07-02T12:57:54;5.28;;;4.97;;
11338;SDS011;5724;42.684;23.252;2023-07-02T13:00:20;5.15;;;4.85;;
11338;SDS011;5724;42.684;23.252;2023-07-02T13:02:46;5.88;;;5.47;;
11338;SDS011;5724;42.684;23.252;2023-07-02T13:05:12;5.18;;;4.78;;
11338;SDS011;5724;42.684;23.252;2023-07-02T13:07:38;7.57;;;4.97;;
11338;SDS011;5724;42.684;23.252;2023-07-02T13:10:04;5.95;;;5.55;;
11338;SDS011;5724;42.684;23.252;2023-07-02T13:12:30;5.88;;;5.47;;
11338;SDS011;5724;42.684;23.252;2023-07-02T13:14:55;5.28;;;4.93;;
11338;SDS011;5724;42.684;23.252;2023-07-02T13:17:21;5.50;;;5.20;;
11338;SDS011;5724;42.684;23.252;2023-07-02T13:19:46;5.50;;;5.00;;
11338;SDS011;5724;42.684;23.252;2023-07-02T13:22:12;5.00;;;4.80;;
11338;SDS011;5724;42.684;23.252;2023-07-02T13:24:37;6.35;;;5.95;;
11338;SDS011;5724;42.684;23.252;2023-07-02T13:27:15;5.95;;;5.60;;
11338;SDS011;5724;42.684;23.252;2023-07-02T13:29:42;5.95;;;5.55;;
11338;SDS011;5724;42.684;23.252;2023-07-02T13:32:08;6.15;;;5.35;;
11338;SDS011;5724;42.684;23.252;2023-07-02T13:34:33;5.97;;;5.60;;
11338;SDS011;5724;42.684;23.252;2023-07-02T13:36:59;6.22;;;5.88;;
11338;SDS011;5724;42.684;23.252;2023-07-02T13:39:27;5.63;;;5.22;;
11338;SDS011;5724;42.684;23.252;2023-07-02T13:41:53;5.25;;;4.95;;
11338;SDS011;5724;42.684;23.252;2023-07-02T13:44:18;5.68;;;5.38;;
11338;SDS011;5724;42.684;23.252;2023-07-02T13:46:44;6.28;;;5.75;;
11338;SDS011;5724;42.684;23.252;2023-07-02T13:49:10;5.57;;;5.18;;
11338;SDS011;5724;42.684;23.252;2023-07-02T13:51:36;5.95;;;5.35;;
11338;SDS011;5724;42.684;23.252;2023-07-02T13:54:01;5.90;;;5.50;;
11338;SDS011;5724;42.684;23.252;2023-07-02T13:56:27;6.38;;;6.00;;
11338;SDS011;5724;42.684;23.252;2023-07-02T14:01:21;6.72;;;6.13;;
11338;SDS011;5724;42.684;23.252;2023-07-02T14:03:47;7.80;;;7.20;;
11338;SDS011;5724;42.684;23.252;2023-07-02T14:06:12;6.93;;;6.45;;
11338;SDS011;5724;42.684;23.252;2023-07-02T14:08:38;7.25;;;6.65;;
11338;SDS011;5724;42.684;23.252;2023-07-02T14:11:03;7.63;;;7.10;;
11338;SDS011;5724;42.684;23.252;2023-07-02T14:13:29;9.13;;;6.38;;
11338;SDS011;5724;42.684;23.252;2023-07-02T14:15:54;7.13;;;6.63;;
11338;SDS011;5724;42.684;23.252;2023-07-02T14:18:19;7.28;;;6.65;;
11338;SDS011;5724;42.684;23.252;2023-07-02T14:20:45;7.30;;;6.63;;
11338;SDS011;5724;42.684;23.252;2023-07-02T14:23:10;7.43;;;6.93;;
11338;SDS011;5724;42.684;23.252;2023-07-02T14:25:36;8.00;;;7.22;;
11338;SDS011;5724;42.684;23.252;2023-07-02T14:28:01;7.82;;;7.30;;
11338;SDS011;5724;42.684;23.252;2023-07-02T14:30:27;8.18;;;7.47;;
11338;SDS011;5724;42.684;23.252;2023-07-02T14:32:52;8.07;;;7.38;;
11338;SDS011;5724;42.684;23.252;2023-07-02T14:35:18;8.43;;;7.70;;
11338;SDS011;5724;42.684;23.252;2023-07-02T14:37:47;8.65;;;8.05;;
11338;SDS011;5724;42.684;23.252;2023-07-02T14:40:12;8.13;;;7.43;;
11338;SDS011;5724;42.684;23.252;2023-07-02T14:42:38;7.65;;;7.15;;
11338;SDS011;5724;42.684;23.252;2023-07-02T14:45:03;7.88;;;7.38;;